CCGS Sir Wilfrid Laurier — CGJK — position and weather

sailwx.info

Track history (hours):
 
Tides and Currents Weather Stations Pressure Air Temp Water Temp Dewpoint Dewpoint Depression Visibility Wind Speed Wind Dir Waves Ship Positions

Oceanographic research ship CCGS Sir Wilfrid Laurier (Canada)

Detailed information on ship capabilities available from ARCUS's ALIAS (Arctic Logistics Information and Support) project.

Last reported at 2015-Mar-27 07:24 UTC. Time now 2015-Mar-27 08:09 UTC.
Position N 48°39' W 123°27'.

Length 83 m; beam 16.2 m; draft 6 m.

Type: SAR. MMSI: 316052000.

Date/timePositionNaut miles runAvg speedWind from/ knotsBaromVisibWave heightAir tempDewpointWater temp
2015-Mar-27 07:24N 48°39' W 123°27'0 0.0
2015-Mar-27 06:12N 48°39' W 123°27'0 0.0
2015-Mar-27 03:24N 48°39' W 123°27'0 0.0
2015-Mar-27 02:30N 48°39' W 123°27'0 0.0
2015-Mar-26 22:24N 48°39' W 123°27'0 0.0
2015-Mar-26 20:24N 48°39' W 123°27'0 0.0
2015-Mar-26 18:24N 48°39' W 123°27'0 0.0
2015-Mar-26 17:18N 48°39' W 123°27'1 0.2
2015-Mar-26 14:14N 48°39' W 123°28'1 2.2
2015-Mar-26 13:33N 48°40' W 123°30'8 7.6
2015-Mar-26 12:34N 48°45' W 123°22'1110.7
2015-Mar-26 11:33N 48°45' W 123°06'5 5.3
2015-Mar-26 10:34N 48°50' W 123°04'10 9.9
2015-Mar-26 09:33N 48°57' W 123°15'1111.2
2015-Mar-26 08:34N 49°05' W 123°27'1010.3
2015-Mar-26 07:33N 49°11' W 123°40'1010.2
2015-Mar-26 06:33N 49°16' W 123°54'1010.4
2015-Mar-26 05:33N 49°21' W 124°07'10 9.8
2015-Mar-26 04:31N 49°26' W 124°21'9 9.0
2015-Mar-26 03:33N 49°32' W 124°31'1110.4
2015-Mar-26 02:32N 49°39' W 124°42'1010.4
2015-Mar-26 01:34N 49°47' W 124°53'77 7.6
2015-Mar-25 15:23N 50°30' W 126°33'10 0.9
2015-Mar-25 04:25N 50°36' W 126°44'910.0
2015-Mar-25 03:31N 50°42' W 126°55'1010.3
2015-Mar-25 02:30N 50°44' W 127°12'1010.7
2015-Mar-25 01:33N 50°46' W 127°27'3 2.7
2015-Mar-25 00:29N 50°43' W 127°28'0 0.0
2015-Mar-24 23:29N 50°43' W 127°28'0 0.0
2015-Mar-24 22:29N 50°43' W 127°28'0 0.0
2015-Mar-24 21:29N 50°43' W 127°28'0 0.0
2015-Mar-24 20:33N 50°43' W 127°28'1 0.7
2015-Mar-24 19:22N 50°43' W 127°29'0 0.0
2015-Mar-24 16:10N 50°43' W 127°29'3 3.7
2015-Mar-24 15:29N 50°46' W 127°28'8 8.9
2015-Mar-24 14:33N 50°51' W 127°39'0 0.1
2015-Mar-24 13:31N 50°51' W 127°39'0 0.0
2015-Mar-24 12:28N 50°51' W 127°39'0 0.0
2015-Mar-24 11:13N 50°51' W 127°39'0 0.0
2015-Mar-24 10:25N 50°51' W 127°39'0 0.0
2015-Mar-24 09:31N 50°51' W 127°39'0 0.0
2015-Mar-24 08:31N 50°51' W 127°39'0 0.0
2015-Mar-24 07:31N 50°51' W 127°39'0 0.0
2015-Mar-24 06:31N 50°51' W 127°39'0 0.0
2015-Mar-24 05:31N 50°51' W 127°39'0 0.0
2015-Mar-24 04:25N 50°51' W 127°39'0 0.0
2015-Mar-24 03:31N 50°51' W 127°39'0 0.0
2015-Mar-24 02:31N 50°51' W 127°39'0 0.0
2015-Mar-24 01:31N 50°51' W 127°39'0 0.0
2015-Mar-24 00:31N 50°51' W 127°39'0 0.0
2015-Mar-23 23:31N 50°51' W 127°39'2 1.8
2015-Mar-23 22:33N 50°50' W 127°42'1311.8
2015-Mar-23 21:26N 50°55' W 128°01'3 2.1
2015-Mar-23 20:09N 50°57' W 127°58'0 0.0
2015-Mar-23 19:21N 50°57' W 127°58'0 0.0
2015-Mar-23 17:09N 50°57' W 127°58'0 0.0
2015-Mar-23 13:03N 50°57' W 127°58'0 0.0
2015-Mar-23 11:27N 50°57' W 127°58'0 0.0
2015-Mar-23 08:18N 50°57' W 127°58'0 0.0
2015-Mar-22 23:24N 50°57' W 127°59'7 7.5
2015-Mar-22 22:32N 51°02' W 127°54'1110.7
2015-Mar-22 21:30N 51°13' W 127°53'1010.1
2015-Mar-22 20:34N 51°23' W 127°50'2 0.1
2015-Mar-21 15:33N 51°23' W 127°46'8 7.3
2015-Mar-21 14:28N 51°30' W 127°50'2 2.6
2015-Mar-21 13:33N 51°33' W 127°51'3 3.4
2015-Mar-21 12:33N 51°29' W 127°50'6 4.6
2015-Mar-21 11:13N 51°23' W 127°52'2 3.7
2015-Mar-21 10:33N 51°21' W 127°52'5 5.2
2015-Mar-21 09:31N 51°16' W 127°54'6 6.4
2015-Mar-21 08:32N 51°10' W 127°58'7 5.7
2015-Mar-21 07:22N 51°05' W 128°04'5 5.8
2015-Mar-21 06:32N 51°01' W 128°10'  
Track history (hours):
 
Tides and Currents Weather Stations Pressure Air Temp Water Temp Dewpoint Dewpoint Depression Visibility Wind Speed Wind Dir Waves Ship Positions

Oceanographic research ship CCGS Sir Wilfrid Laurier (Canada)

Detailed information on ship capabilities available from ARCUS's ALIAS (Arctic Logistics Information and Support) project.

Last reported at 2015-Mar-27 07:24 UTC. Time now 2015-Mar-27 08:09 UTC.
Position N 48°39' W 123°27'.

Length 83 m; beam 16.2 m; draft 6 m.

Type: SAR. MMSI: 316052000.

Date/timePositionNaut miles runAvg speedWind from/ knotsBaromVisibWave heightAir tempDewpointWater temp
2015-Mar-27 07:24N 48°39' W 123°27'0 0.0
2015-Mar-27 06:12N 48°39' W 123°27'0 0.0
2015-Mar-27 03:24N 48°39' W 123°27'0 0.0
2015-Mar-27 02:30N 48°39' W 123°27'0 0.0
2015-Mar-26 22:24N 48°39' W 123°27'0 0.0
2015-Mar-26 20:24N 48°39' W 123°27'0 0.0
2015-Mar-26 18:24N 48°39' W 123°27'0 0.0
2015-Mar-26 17:18N 48°39' W 123°27'1 0.2
2015-Mar-26 14:14N 48°39' W 123°28'1 2.2
2015-Mar-26 13:33N 48°40' W 123°30'8 7.6
2015-Mar-26 12:34N 48°45' W 123°22'1110.7
2015-Mar-26 11:33N 48°45' W 123°06'5 5.3
2015-Mar-26 10:34N 48°50' W 123°04'10 9.9
2015-Mar-26 09:33N 48°57' W 123°15'1111.2
2015-Mar-26 08:34N 49°05' W 123°27'1010.3
2015-Mar-26 07:33N 49°11' W 123°40'1010.2
2015-Mar-26 06:33N 49°16' W 123°54'1010.4
2015-Mar-26 05:33N 49°21' W 124°07'10 9.8
2015-Mar-26 04:31N 49°26' W 124°21'9 9.0
2015-Mar-26 03:33N 49°32' W 124°31'1110.4
2015-Mar-26 02:32N 49°39' W 124°42'1010.4
2015-Mar-26 01:34N 49°47' W 124°53'77 7.6
2015-Mar-25 15:23N 50°30' W 126°33'10 0.9
2015-Mar-25 04:25N 50°36' W 126°44'910.0
2015-Mar-25 03:31N 50°42' W 126°55'1010.3
2015-Mar-25 02:30N 50°44' W 127°12'1010.7
2015-Mar-25 01:33N 50°46' W 127°27'3 2.7
2015-Mar-25 00:29N 50°43' W 127°28'0 0.0
2015-Mar-24 23:29N 50°43' W 127°28'0 0.0
2015-Mar-24 22:29N 50°43' W 127°28'0 0.0
2015-Mar-24 21:29N 50°43' W 127°28'0 0.0
2015-Mar-24 20:33N 50°43' W 127°28'1 0.7
2015-Mar-24 19:22N 50°43' W 127°29'0 0.0
2015-Mar-24 16:10N 50°43' W 127°29'3 3.7
2015-Mar-24 15:29N 50°46' W 127°28'8 8.9
2015-Mar-24 14:33N 50°51' W 127°39'0 0.1
2015-Mar-24 13:31N 50°51' W 127°39'0 0.0
2015-Mar-24 12:28N 50°51' W 127°39'0 0.0
2015-Mar-24 11:13N 50°51' W 127°39'0 0.0
2015-Mar-24 10:25N 50°51' W 127°39'0 0.0
2015-Mar-24 09:31N 50°51' W 127°39'0 0.0
2015-Mar-24 08:31N 50°51' W 127°39'0 0.0
2015-Mar-24 07:31N 50°51' W 127°39'0 0.0
2015-Mar-24 06:31N 50°51' W 127°39'0 0.0
2015-Mar-24 05:31N 50°51' W 127°39'0 0.0
2015-Mar-24 04:25N 50°51' W 127°39'0 0.0
2015-Mar-24 03:31N 50°51' W 127°39'0 0.0
2015-Mar-24 02:31N 50°51' W 127°39'0 0.0
2015-Mar-24 01:31N 50°51' W 127°39'0 0.0
2015-Mar-24 00:31N 50°51' W 127°39'0 0.0
2015-Mar-23 23:31N 50°51' W 127°39'2 1.8
2015-Mar-23 22:33N 50°50' W 127°42'1311.8
2015-Mar-23 21:26N 50°55' W 128°01'3 2.1
2015-Mar-23 20:09N 50°57' W 127°58'0 0.0
2015-Mar-23 19:21N 50°57' W 127°58'0 0.0
2015-Mar-23 17:09N 50°57' W 127°58'0 0.0
2015-Mar-23 13:03N 50°57' W 127°58'0 0.0
2015-Mar-23 11:27N 50°57' W 127°58'0 0.0
2015-Mar-23 08:18N 50°57' W 127°58'0 0.0
2015-Mar-22 23:24N 50°57' W 127°59'7 7.5
2015-Mar-22 22:32N 51°02' W 127°54'1110.7
2015-Mar-22 21:30N 51°13' W 127°53'1010.1
2015-Mar-22 20:34N 51°23' W 127°50'2 0.1
2015-Mar-21 15:33N 51°23' W 127°46'8 7.3
2015-Mar-21 14:28N 51°30' W 127°50'2 2.6
2015-Mar-21 13:33N 51°33' W 127°51'3 3.4
2015-Mar-21 12:33N 51°29' W 127°50'6 4.6
2015-Mar-21 11:13N 51°23' W 127°52'2 3.7
2015-Mar-21 10:33N 51°21' W 127°52'5 5.2
2015-Mar-21 09:31N 51°16' W 127°54'6 6.4
2015-Mar-21 08:32N 51°10' W 127°58'7 5.7
2015-Mar-21 07:22N 51°05' W 128°04'5 5.8
2015-Mar-21 06:32N 51°01' W 128°10'  

Dump ship's entire track history